sensor_id;sensor_type;location;lat;lon;timestamp;P1;durP1;ratioP1;P2;durP2;ratioP2
7432;SDS011;32233;49.500;7.764;2024-01-06T00:00:23;14.63;;;6.13;;
7432;SDS011;32233;49.500;7.764;2024-01-06T00:02:50;12.23;;;6.67;;
7432;SDS011;32233;49.500;7.764;2024-01-06T00:05:17;18.83;;;9.23;;
7432;SDS011;32233;49.500;7.764;2024-01-06T00:07:43;28.53;;;13.50;;
7432;SDS011;32233;49.500;7.764;2024-01-06T00:10:10;21.00;;;9.83;;
7432;SDS011;32233;49.500;7.764;2024-01-06T00:12:40;15.77;;;7.63;;
7432;SDS011;32233;49.500;7.764;2024-01-06T00:15:07;15.27;;;7.53;;
7432;SDS011;32233;49.500;7.764;2024-01-06T00:17:33;12.30;;;5.83;;
7432;SDS011;32233;49.500;7.764;2024-01-06T00:20:00;8.93;;;5.53;;
7432;SDS011;32233;49.500;7.764;2024-01-06T00:22:28;12.17;;;5.30;;
7432;SDS011;32233;49.500;7.764;2024-01-06T00:24:55;12.90;;;5.70;;
7432;SDS011;32233;49.500;7.764;2024-01-06T00:27:22;13.47;;;5.17;;
7432;SDS011;32233;49.500;7.764;2024-01-06T00:29:48;11.30;;;4.97;;
7432;SDS011;32233;49.500;7.764;2024-01-06T00:32:15;8.53;;;4.80;;
7432;SDS011;32233;49.500;7.764;2024-01-06T00:34:41;13.70;;;7.90;;
7432;SDS011;32233;49.500;7.764;2024-01-06T00:37:08;14.27;;;7.13;;
7432;SDS011;32233;49.500;7.764;2024-01-06T00:39:34;14.10;;;7.43;;
7432;SDS011;32233;49.500;7.764;2024-01-06T00:42:01;13.87;;;8.07;;
7432;SDS011;32233;49.500;7.764;2024-01-06T00:44:28;14.10;;;8.03;;
7432;SDS011;32233;49.500;7.764;2024-01-06T00:46:54;12.87;;;6.77;;
7432;SDS011;32233;49.500;7.764;2024-01-06T00:49:21;12.23;;;5.30;;
7432;SDS011;32233;49.500;7.764;2024-01-06T00:51:47;10.63;;;5.23;;
7432;SDS011;32233;49.500;7.764;2024-01-06T00:54:14;9.00;;;4.83;;
7432;SDS011;32233;49.500;7.764;2024-01-06T00:56:41;10.50;;;4.93;;
7432;SDS011;32233;49.500;7.764;2024-01-06T00:59:09;8.53;;;4.90;;
7432;SDS011;32233;49.500;7.764;2024-01-06T01:01:35;7.73;;;4.50;;
7432;SDS011;32233;49.500;7.764;2024-01-06T01:04:02;10.63;;;4.53;;
7432;SDS011;32233;49.500;7.764;2024-01-06T01:06:29;13.23;;;4.67;;
7432;SDS011;32233;49.500;7.764;2024-01-06T01:08:56;12.47;;;4.20;;
7432;SDS011;32233;49.500;7.764;2024-01-06T01:11:22;9.50;;;4.60;;
7432;SDS011;32233;49.500;7.764;2024-01-06T01:13:49;7.63;;;4.50;;
7432;SDS011;32233;49.500;7.764;2024-01-06T01:16:15;9.80;;;3.90;;
7432;SDS011;32233;49.500;7.764;2024-01-06T01:18:42;6.57;;;3.93;;
7432;SDS011;32233;49.500;7.764;2024-01-06T01:21:09;7.27;;;4.30;;
7432;SDS011;32233;49.500;7.764;2024-01-06T01:23:35;9.20;;;3.60;;
7432;SDS011;32233;49.500;7.764;2024-01-06T01:26:02;7.03;;;4.00;;
7432;SDS011;32233;49.500;7.764;2024-01-06T01:28:29;10.30;;;3.60;;
7432;SDS011;32233;49.500;7.764;2024-01-06T01:30:55;13.10;;;4.00;;
7432;SDS011;32233;49.500;7.764;2024-01-06T01:33:22;8.73;;;3.43;;
7432;SDS011;32233;49.500;7.764;2024-01-06T01:35:50;5.87;;;3.23;;
7432;SDS011;32233;49.500;7.764;2024-01-06T01:38:17;6.83;;;3.47;;
7432;SDS011;32233;49.500;7.764;2024-01-06T01:40:43;6.87;;;3.00;;
7432;SDS011;32233;49.500;7.764;2024-01-06T01:43:19;10.27;;;3.50;;
7432;SDS011;32233;49.500;7.764;2024-01-06T01:45:48;6.90;;;3.60;;
7432;SDS011;32233;49.500;7.764;2024-01-06T01:48:18;5.27;;;3.10;;
7432;SDS011;32233;49.500;7.764;2024-01-06T01:50:47;6.10;;;3.23;;
7432;SDS011;32233;49.500;7.764;2024-01-06T01:53:13;7.63;;;3.10;;
7432;SDS011;32233;49.500;7.764;2024-01-06T01:55:40;12.00;;;3.53;;
7432;SDS011;32233;49.500;7.764;2024-01-06T01:58:09;7.77;;;3.50;;
7432;SDS011;32233;49.500;7.764;2024-01-06T02:00:38;6.83;;;3.57;;
7432;SDS011;32233;49.500;7.764;2024-01-06T02:03:05;4.77;;;2.97;;
7432;SDS011;32233;49.500;7.764;2024-01-06T02:05:32;8.30;;;3.47;;
7432;SDS011;32233;49.500;7.764;2024-01-06T02:07:59;5.90;;;3.27;;
7432;SDS011;32233;49.500;7.764;2024-01-06T02:10:26;6.83;;;3.30;;
7432;SDS011;32233;49.500;7.764;2024-01-06T02:12:54;6.00;;;3.30;;
7432;SDS011;32233;49.500;7.764;2024-01-06T02:15:20;8.27;;;3.70;;
7432;SDS011;32233;49.500;7.764;2024-01-06T02:17:47;8.20;;;4.00;;
7432;SDS011;32233;49.500;7.764;2024-01-06T02:20:14;11.90;;;7.00;;
7432;SDS011;32233;49.500;7.764;2024-01-06T02:22:42;12.57;;;5.90;;
7432;SDS011;32233;49.500;7.764;2024-01-06T02:25:09;7.40;;;3.87;;
7432;SDS011;32233;49.500;7.764;2024-01-06T02:27:39;5.33;;;3.30;;
7432;SDS011;32233;49.500;7.764;2024-01-06T02:30:06;7.37;;;3.00;;
7432;SDS011;32233;49.500;7.764;2024-01-06T02:32:34;7.73;;;3.57;;
7432;SDS011;32233;49.500;7.764;2024-01-06T02:35:01;8.30;;;3.57;;
7432;SDS011;32233;49.500;7.764;2024-01-06T02:37:27;8.23;;;3.30;;
7432;SDS011;32233;49.500;7.764;2024-01-06T02:39:54;8.47;;;3.33;;
7432;SDS011;32233;49.500;7.764;2024-01-06T02:42:20;6.03;;;3.10;;
7432;SDS011;32233;49.500;7.764;2024-01-06T02:44:47;5.97;;;3.30;;
7432;SDS011;32233;49.500;7.764;2024-01-06T02:47:14;6.53;;;3.30;;
7432;SDS011;32233;49.500;7.764;2024-01-06T02:49:40;7.40;;;3.40;;
7432;SDS011;32233;49.500;7.764;2024-01-06T02:52:07;5.40;;;3.77;;
7432;SDS011;32233;49.500;7.764;2024-01-06T02:54:34;7.40;;;3.50;;
7432;SDS011;32233;49.500;7.764;2024-01-06T02:57:00;6.00;;;3.37;;
7432;SDS011;32233;49.500;7.764;2024-01-06T02:59:27;5.73;;;3.07;;
7432;SDS011;32233;49.500;7.764;2024-01-06T03:01:53;7.10;;;3.60;;
7432;SDS011;32233;49.500;7.764;2024-01-06T03:04:20;6.13;;;3.67;;
7432;SDS011;32233;49.500;7.764;2024-01-06T03:06:46;7.53;;;3.50;;
7432;SDS011;32233;49.500;7.764;2024-01-06T03:09:18;9.43;;;3.50;;
7432;SDS011;32233;49.500;7.764;2024-01-06T03:11:45;4.50;;;3.40;;
7432;SDS011;32233;49.500;7.764;2024-01-06T03:14:12;7.37;;;3.63;;
7432;SDS011;32233;49.500;7.764;2024-01-06T03:16:39;7.27;;;3.60;;
7432;SDS011;32233;49.500;7.764;2024-01-06T03:19:05;8.53;;;4.13;;
7432;SDS011;32233;49.500;7.764;2024-01-06T03:21:32;9.80;;;4.40;;
7432;SDS011;32233;49.500;7.764;2024-01-06T03:23:59;7.43;;;3.90;;
7432;SDS011;32233;49.500;7.764;2024-01-06T03:26:26;8.97;;;4.17;;
7432;SDS011;32233;49.500;7.764;2024-01-06T03:28:54;8.50;;;4.00;;
7432;SDS011;32233;49.500;7.764;2024-01-06T03:31:21;10.57;;;4.47;;
7432;SDS011;32233;49.500;7.764;2024-01-06T03:33:48;6.87;;;4.27;;
7432;SDS011;32233;49.500;7.764;2024-01-06T03:36:15;7.57;;;4.30;;
7432;SDS011;32233;49.500;7.764;2024-01-06T03:38:43;8.27;;;3.93;;
7432;SDS011;32233;49.500;7.764;2024-01-06T03:41:10;7.03;;;3.90;;
7432;SDS011;32233;49.500;7.764;2024-01-06T03:43:36;11.33;;;3.80;;
7432;SDS011;32233;49.500;7.764;2024-01-06T03:46:03;8.07;;;4.07;;
7432;SDS011;32233;49.500;7.764;2024-01-06T03:48:31;9.13;;;4.00;;
7432;SDS011;32233;49.500;7.764;2024-01-06T03:50:59;7.57;;;3.83;;
7432;SDS011;32233;49.500;7.764;2024-01-06T03:53:25;6.40;;;4.17;;
7432;SDS011;32233;49.500;7.764;2024-01-06T03:55:52;7.40;;;4.10;;
7432;SDS011;32233;49.500;7.764;2024-01-06T03:58:19;7.23;;;3.70;;
7432;SDS011;32233;49.500;7.764;2024-01-06T04:00:46;7.87;;;4.13;;
7432;SDS011;32233;49.500;7.764;2024-01-06T04:03:13;6.87;;;4.10;;
7432;SDS011;32233;49.500;7.764;2024-01-06T04:05:39;10.63;;;3.73;;
7432;SDS011;32233;49.500;7.764;2024-01-06T04:08:07;6.73;;;3.87;;
7432;SDS011;32233;49.500;7.764;2024-01-06T04:10:34;7.53;;;3.57;;
7432;SDS011;32233;49.500;7.764;2024-01-06T04:13:01;6.77;;;3.93;;
7432;SDS011;32233;49.500;7.764;2024-01-06T04:15:28;11.03;;;4.10;;
7432;SDS011;32233;49.500;7.764;2024-01-06T04:17:54;4.77;;;3.53;;
7432;SDS011;32233;49.500;7.764;2024-01-06T04:20:22;5.70;;;4.10;;
7432;SDS011;32233;49.500;7.764;2024-01-06T04:22:48;9.23;;;4.37;;
7432;SDS011;32233;49.500;7.764;2024-01-06T04:25:15;10.53;;;5.20;;
7432;SDS011;32233;49.500;7.764;2024-01-06T04:27:42;8.27;;;5.23;;
7432;SDS011;32233;49.500;7.764;2024-01-06T04:30:09;10.27;;;4.90;;
7432;SDS011;32233;49.500;7.764;2024-01-06T04:32:36;9.10;;;4.93;;
7432;SDS011;32233;49.500;7.764;2024-01-06T04:35:03;8.20;;;5.20;;
7432;SDS011;32233;49.500;7.764;2024-01-06T04:37:30;8.60;;;4.63;;
7432;SDS011;32233;49.500;7.764;2024-01-06T04:39:56;8.57;;;4.47;;
7432;SDS011;32233;49.500;7.764;2024-01-06T04:42:24;10.60;;;5.13;;
7432;SDS011;32233;49.500;7.764;2024-01-06T04:44:50;8.60;;;4.10;;
7432;SDS011;32233;49.500;7.764;2024-01-06T04:47:17;7.43;;;4.73;;
7432;SDS011;32233;49.500;7.764;2024-01-06T04:49:44;8.23;;;4.37;;
7432;SDS011;32233;49.500;7.764;2024-01-06T04:52:11;9.47;;;4.53;;
7432;SDS011;32233;49.500;7.764;2024-01-06T04:54:38;8.40;;;4.50;;
7432;SDS011;32233;49.500;7.764;2024-01-06T04:57:05;8.63;;;4.80;;
7432;SDS011;32233;49.500;7.764;2024-01-06T04:59:31;9.90;;;4.83;;
7432;SDS011;32233;49.500;7.764;2024-01-06T05:01:58;7.97;;;4.47;;
7432;SDS011;32233;49.500;7.764;2024-01-06T05:04:25;11.10;;;5.03;;
7432;SDS011;32233;49.500;7.764;2024-01-06T05:06:51;7.93;;;5.10;;
7432;SDS011;32233;49.500;7.764;2024-01-06T05:09:18;8.23;;;5.53;;
7432;SDS011;32233;49.500;7.764;2024-01-06T05:11:45;8.37;;;5.40;;
7432;SDS011;32233;49.500;7.764;2024-01-06T05:14:12;11.53;;;6.13;;
7432;SDS011;32233;49.500;7.764;2024-01-06T05:16:38;15.80;;;6.43;;
7432;SDS011;32233;49.500;7.764;2024-01-06T05:19:05;10.47;;;6.17;;
7432;SDS011;32233;49.500;7.764;2024-01-06T05:21:32;10.77;;;6.13;;
7432;SDS011;32233;49.500;7.764;2024-01-06T05:23:59;14.37;;;6.80;;
7432;SDS011;32233;49.500;7.764;2024-01-06T05:26:25;12.20;;;6.67;;
7432;SDS011;32233;49.500;7.764;2024-01-06T05:28:52;13.47;;;7.00;;
7432;SDS011;32233;49.500;7.764;2024-01-06T05:31:19;14.27;;;7.00;;
7432;SDS011;32233;49.500;7.764;2024-01-06T05:33:45;16.70;;;7.87;;
7432;SDS011;32233;49.500;7.764;2024-01-06T05:36:12;14.83;;;7.37;;
7432;SDS011;32233;49.500;7.764;2024-01-06T05:38:39;12.27;;;7.43;;
7432;SDS011;32233;49.500;7.764;2024-01-06T05:41:05;13.40;;;7.50;;
7432;SDS011;32233;49.500;7.764;2024-01-06T05:43:32;12.57;;;7.93;;
7432;SDS011;32233;49.500;7.764;2024-01-06T05:45:58;15.10;;;7.27;;
7432;SDS011;32233;49.500;7.764;2024-01-06T05:48:25;13.73;;;7.67;;
7432;SDS011;32233;49.500;7.764;2024-01-06T05:50:52;14.80;;;7.73;;
7432;SDS011;32233;49.500;7.764;2024-01-06T05:53:18;16.43;;;7.87;;
7432;SDS011;32233;49.500;7.764;2024-01-06T05:55:45;15.17;;;8.00;;
7432;SDS011;32233;49.500;7.764;2024-01-06T05:58:12;13.70;;;7.97;;
7432;SDS011;32233;49.500;7.764;2024-01-06T06:00:38;15.13;;;7.67;;
7432;SDS011;32233;49.500;7.764;2024-01-06T06:03:05;13.97;;;7.87;;
7432;SDS011;32233;49.500;7.764;2024-01-06T06:05:34;18.33;;;8.30;;
7432;SDS011;32233;49.500;7.764;2024-01-06T06:08:00;11.97;;;7.10;;
7432;SDS011;32233;49.500;7.764;2024-01-06T06:10:27;11.17;;;7.80;;
7432;SDS011;32233;49.500;7.764;2024-01-06T06:13:07;12.60;;;7.33;;
7432;SDS011;32233;49.500;7.764;2024-01-06T06:15:37;12.53;;;7.93;;
7432;SDS011;32233;49.500;7.764;2024-01-06T06:18:03;16.97;;;7.43;;
7432;SDS011;32233;49.500;7.764;2024-01-06T06:20:30;13.43;;;7.43;;
7432;SDS011;32233;49.500;7.764;2024-01-06T06:22:57;13.07;;;7.70;;
7432;SDS011;32233;49.500;7.764;2024-01-06T06:25:23;15.00;;;7.70;;
7432;SDS011;32233;49.500;7.764;2024-01-06T06:27:50;13.10;;;7.63;;
7432;SDS011;32233;49.500;7.764;2024-01-06T06:30:16;11.90;;;7.60;;
7432;SDS011;32233;49.500;7.764;2024-01-06T06:32:43;13.97;;;7.33;;
7432;SDS011;32233;49.500;7.764;2024-01-06T06:35:10;14.97;;;7.80;;
7432;SDS011;32233;49.500;7.764;2024-01-06T06:37:37;16.70;;;7.80;;
7432;SDS011;32233;49.500;7.764;2024-01-06T06:40:03;13.40;;;7.27;;
7432;SDS011;32233;49.500;7.764;2024-01-06T06:42:30;12.10;;;8.03;;
7432;SDS011;32233;49.500;7.764;2024-01-06T06:44:57;16.87;;;7.67;;
7432;SDS011;32233;49.500;7.764;2024-01-06T06:47:24;14.67;;;7.70;;
7432;SDS011;32233;49.500;7.764;2024-01-06T06:49:50;18.20;;;8.73;;
7432;SDS011;32233;49.500;7.764;2024-01-06T06:52:17;14.53;;;8.43;;
7432;SDS011;32233;49.500;7.764;2024-01-06T06:54:43;16.77;;;8.17;;
7432;SDS011;32233;49.500;7.764;2024-01-06T06:57:10;14.97;;;8.13;;
7432;SDS011;32233;49.500;7.764;2024-01-06T06:59:38;14.60;;;8.83;;
7432;SDS011;32233;49.500;7.764;2024-01-06T07:02:05;14.67;;;8.53;;
7432;SDS011;32233;49.500;7.764;2024-01-06T07:04:32;13.03;;;8.50;;
7432;SDS011;32233;49.500;7.764;2024-01-06T07:06:58;17.00;;;9.20;;
7432;SDS011;32233;49.500;7.764;2024-01-06T07:09:25;18.93;;;9.90;;
7432;SDS011;32233;49.500;7.764;2024-01-06T07:11:51;17.63;;;8.93;;
7432;SDS011;32233;49.500;7.764;2024-01-06T07:14:18;13.97;;;8.47;;
7432;SDS011;32233;49.500;7.764;2024-01-06T07:16:44;14.37;;;8.13;;
7432;SDS011;32233;49.500;7.764;2024-01-06T07:19:11;16.60;;;8.47;;
7432;SDS011;32233;49.500;7.764;2024-01-06T07:21:38;21.37;;;8.93;;
7432;SDS011;32233;49.500;7.764;2024-01-06T07:24:04;18.03;;;8.27;;
7432;SDS011;32233;49.500;7.764;2024-01-06T07:26:31;15.57;;;8.80;;
7432;SDS011;32233;49.500;7.764;2024-01-06T07:28:58;17.43;;;9.10;;
7432;SDS011;32233;49.500;7.764;2024-01-06T07:31:24;17.83;;;8.67;;
7432;SDS011;32233;49.500;7.764;2024-01-06T07:33:51;18.37;;;9.00;;
7432;SDS011;32233;49.500;7.764;2024-01-06T07:36:18;18.77;;;8.97;;
7432;SDS011;32233;49.500;7.764;2024-01-06T07:38:44;19.47;;;9.53;;
7432;SDS011;32233;49.500;7.764;2024-01-06T07:41:14;20.00;;;9.53;;
7432;SDS011;32233;49.500;7.764;2024-01-06T07:43:41;16.87;;;9.03;;
7432;SDS011;32233;49.500;7.764;2024-01-06T07:46:08;19.23;;;10.47;;
7432;SDS011;32233;49.500;7.764;2024-01-06T07:48:35;15.37;;;9.17;;
7432;SDS011;32233;49.500;7.764;2024-01-06T07:51:02;23.53;;;10.47;;
7432;SDS011;32233;49.500;7.764;2024-01-06T07:53:30;22.53;;;10.80;;
7432;SDS011;32233;49.500;7.764;2024-01-06T07:55:56;19.10;;;10.53;;
7432;SDS011;32233;49.500;7.764;2024-01-06T07:58:23;22.77;;;10.67;;
7432;SDS011;32233;49.500;7.764;2024-01-06T08:00:49;19.30;;;10.43;;
7432;SDS011;32233;49.500;7.764;2024-01-06T08:03:16;23.53;;;11.43;;
7432;SDS011;32233;49.500;7.764;2024-01-06T08:05:43;23.60;;;12.13;;
7432;SDS011;32233;49.500;7.764;2024-01-06T08:08:10;21.27;;;10.63;;
7432;SDS011;32233;49.500;7.764;2024-01-06T08:10:37;20.93;;;10.73;;
7432;SDS011;32233;49.500;7.764;2024-01-06T08:13:03;24.43;;;11.57;;
7432;SDS011;32233;49.500;7.764;2024-01-06T08:15:30;23.83;;;12.10;;
7432;SDS011;32233;49.500;7.764;2024-01-06T08:17:58;20.97;;;11.77;;
7432;SDS011;32233;49.500;7.764;2024-01-06T08:20:25;28.53;;;12.23;;
7432;SDS011;32233;49.500;7.764;2024-01-06T08:22:52;22.40;;;11.30;;
7432;SDS011;32233;49.500;7.764;2024-01-06T08:25:19;24.57;;;12.57;;
7432;SDS011;32233;49.500;7.764;2024-01-06T08:27:45;26.93;;;12.23;;
7432;SDS011;32233;49.500;7.764;2024-01-06T08:30:12;22.33;;;12.43;;
7432;SDS011;32233;49.500;7.764;2024-01-06T08:32:39;26.90;;;12.53;;
7432;SDS011;32233;49.500;7.764;2024-01-06T08:35:14;27.67;;;13.63;;
7432;SDS011;32233;49.500;7.764;2024-01-06T08:37:43;26.17;;;13.77;;
7432;SDS011;32233;49.500;7.764;2024-01-06T08:40:10;25.60;;;12.27;;
7432;SDS011;32233;49.500;7.764;2024-01-06T08:42:37;24.13;;;13.53;;
7432;SDS011;32233;49.500;7.764;2024-01-06T08:45:04;23.77;;;12.83;;
7432;SDS011;32233;49.500;7.764;2024-01-06T08:47:31;27.17;;;13.93;;
7432;SDS011;32233;49.500;7.764;2024-01-06T08:49:59;30.20;;;13.90;;
7432;SDS011;32233;49.500;7.764;2024-01-06T08:52:26;30.63;;;13.07;;
7432;SDS011;32233;49.500;7.764;2024-01-06T08:54:53;25.57;;;13.00;;
7432;SDS011;32233;49.500;7.764;2024-01-06T08:57:20;26.70;;;13.73;;
7432;SDS011;32233;49.500;7.764;2024-01-06T08:59:47;27.57;;;14.10;;
7432;SDS011;32233;49.500;7.764;2024-01-06T09:02:13;23.33;;;12.90;;
7432;SDS011;32233;49.500;7.764;2024-01-06T09:04:40;24.30;;;13.07;;
7432;SDS011;32233;49.500;7.764;2024-01-06T09:07:06;27.40;;;14.20;;
7432;SDS011;32233;49.500;7.764;2024-01-06T09:09:33;23.23;;;13.03;;
7432;SDS011;32233;49.500;7.764;2024-01-06T09:11:59;23.30;;;13.30;;
7432;SDS011;32233;49.500;7.764;2024-01-06T09:14:26;28.93;;;14.27;;
7432;SDS011;32233;49.500;7.764;2024-01-06T09:16:53;25.47;;;12.90;;
7432;SDS011;32233;49.500;7.764;2024-01-06T09:19:20;27.87;;;13.50;;
7432;SDS011;32233;49.500;7.764;2024-01-06T09:21:47;25.70;;;13.37;;
7432;SDS011;32233;49.500;7.764;2024-01-06T09:24:14;25.47;;;13.07;;
7432;SDS011;32233;49.500;7.764;2024-01-06T09:26:41;25.00;;;12.57;;
7432;SDS011;32233;49.500;7.764;2024-01-06T09:29:07;24.23;;;13.07;;
7432;SDS011;32233;49.500;7.764;2024-01-06T09:31:37;27.70;;;13.43;;
7432;SDS011;32233;49.500;7.764;2024-01-06T09:34:04;23.13;;;13.30;;
7432;SDS011;32233;49.500;7.764;2024-01-06T09:36:32;25.37;;;14.20;;
7432;SDS011;32233;49.500;7.764;2024-01-06T09:38:59;24.80;;;14.37;;
7432;SDS011;32233;49.500;7.764;2024-01-06T09:41:25;24.60;;;14.50;;
7432;SDS011;32233;49.500;7.764;2024-01-06T09:43:52;25.20;;;13.60;;
7432;SDS011;32233;49.500;7.764;2024-01-06T09:46:25;26.73;;;14.37;;
7432;SDS011;32233;49.500;7.764;2024-01-06T09:48:53;25.67;;;12.73;;
7432;SDS011;32233;49.500;7.764;2024-01-06T09:51:22;19.93;;;12.10;;
7432;SDS011;32233;49.500;7.764;2024-01-06T09:53:57;25.97;;;13.83;;
7432;SDS011;32233;49.500;7.764;2024-01-06T09:56:29;24.43;;;14.73;;
7432;SDS011;32233;49.500;7.764;2024-01-06T09:58:56;28.27;;;14.90;;
7432;SDS011;32233;49.500;7.764;2024-01-06T10:01:23;26.80;;;15.00;;
7432;SDS011;32233;49.500;7.764;2024-01-06T10:03:50;25.53;;;14.53;;
7432;SDS011;32233;49.500;7.764;2024-01-06T10:06:17;20.80;;;13.53;;
7432;SDS011;32233;49.500;7.764;2024-01-06T10:08:48;26.00;;;13.77;;
7432;SDS011;32233;49.500;7.764;2024-01-06T10:11:15;23.13;;;13.93;;
7432;SDS011;32233;49.500;7.764;2024-01-06T10:13:42;21.17;;;12.87;;
7432;SDS011;32233;49.500;7.764;2024-01-06T10:16:08;28.00;;;14.27;;
7432;SDS011;32233;49.500;7.764;2024-01-06T10:18:36;24.33;;;14.17;;
7432;SDS011;32233;49.500;7.764;2024-01-06T10:21:03;21.80;;;12.93;;
7432;SDS011;32233;49.500;7.764;2024-01-06T10:23:32;28.87;;;13.63;;
7432;SDS011;32233;49.500;7.764;2024-01-06T10:25:59;23.10;;;13.30;;
7432;SDS011;32233;49.500;7.764;2024-01-06T10:28:30;24.33;;;13.50;;
7432;SDS011;32233;49.500;7.764;2024-01-06T10:30:57;22.20;;;13.23;;
7432;SDS011;32233;49.500;7.764;2024-01-06T10:33:25;22.07;;;12.77;;
7432;SDS011;32233;49.500;7.764;2024-01-06T10:35:52;20.03;;;12.67;;
7432;SDS011;32233;49.500;7.764;2024-01-06T10:38:21;20.57;;;13.87;;
7432;SDS011;32233;49.500;7.764;2024-01-06T10:40:58;20.87;;;12.23;;
7432;SDS011;32233;49.500;7.764;2024-01-06T10:43:26;20.23;;;12.03;;
7432;SDS011;32233;49.500;7.764;2024-01-06T10:45:55;21.87;;;12.23;;
7432;SDS011;32233;49.500;7.764;2024-01-06T10:48:25;20.07;;;12.13;;
7432;SDS011;32233;49.500;7.764;2024-01-06T10:50:53;17.20;;;10.70;;
7432;SDS011;32233;49.500;7.764;2024-01-06T10:53:21;16.87;;;11.00;;
7432;SDS011;32233;49.500;7.764;2024-01-06T10:55:49;18.63;;;10.97;;
7432;SDS011;32233;49.500;7.764;2024-01-06T10:58:21;19.93;;;11.07;;
7432;SDS011;32233;49.500;7.764;2024-01-06T11:00:48;18.93;;;11.23;;
7432;SDS011;32233;49.500;7.764;2024-01-06T11:03:15;23.80;;;12.13;;
7432;SDS011;32233;49.500;7.764;2024-01-06T11:05:44;19.03;;;10.97;;
7432;SDS011;32233;49.500;7.764;2024-01-06T11:08:11;19.77;;;11.70;;
7432;SDS011;32233;49.500;7.764;2024-01-06T11:10:39;20.07;;;11.07;;
7432;SDS011;32233;49.500;7.764;2024-01-06T11:13:13;20.17;;;11.20;;
7432;SDS011;32233;49.500;7.764;2024-01-06T11:15:47;19.93;;;11.00;;
7432;SDS011;32233;49.500;7.764;2024-01-06T11:21:16;18.50;;;10.53;;
7432;SDS011;32233;49.500;7.764;2024-01-06T11:23:44;14.93;;;10.73;;
7432;SDS011;32233;49.500;7.764;2024-01-06T11:26:12;19.10;;;11.03;;
7432;SDS011;32233;49.500;7.764;2024-01-06T11:28:46;16.77;;;9.87;;
7432;SDS011;32233;49.500;7.764;2024-01-06T11:31:14;17.93;;;9.90;;
7432;SDS011;32233;49.500;7.764;2024-01-06T11:33:41;16.20;;;9.67;;
7432;SDS011;32233;49.500;7.764;2024-01-06T11:36:09;17.57;;;9.53;;
7432;SDS011;32233;49.500;7.764;2024-01-06T11:38:38;14.23;;;9.13;;
7432;SDS011;32233;49.500;7.764;2024-01-06T11:41:10;15.57;;;10.00;;
7432;SDS011;32233;49.500;7.764;2024-01-06T11:43:38;18.27;;;10.00;;
7432;SDS011;32233;49.500;7.764;2024-01-06T11:46:07;14.83;;;8.87;;
7432;SDS011;32233;49.500;7.764;2024-01-06T11:48:38;10.70;;;8.00;;
7432;SDS011;32233;49.500;7.764;2024-01-06T11:51:08;14.63;;;8.07;;
7432;SDS011;32233;49.500;7.764;2024-01-06T11:53:35;9.17;;;7.20;;
7432;SDS011;32233;49.500;7.764;2024-01-06T11:56:01;12.20;;;8.10;;
7432;SDS011;32233;49.500;7.764;2024-01-06T11:58:28;10.47;;;8.00;;
7432;SDS011;32233;49.500;7.764;2024-01-06T12:00:55;10.70;;;7.70;;
7432;SDS011;32233;49.500;7.764;2024-01-06T12:03:24;9.70;;;7.33;;
7432;SDS011;32233;49.500;7.764;2024-01-06T12:05:59;13.67;;;8.07;;
7432;SDS011;32233;49.500;7.764;2024-01-06T12:08:28;8.73;;;6.87;;
7432;SDS011;32233;49.500;7.764;2024-01-06T12:11:04;10.93;;;7.50;;
7432;SDS011;32233;49.500;7.764;2024-01-06T12:13:31;10.07;;;7.20;;
7432;SDS011;32233;49.500;7.764;2024-01-06T12:15:58;12.17;;;7.80;;
7432;SDS011;32233;49.500;7.764;2024-01-06T12:18:25;9.77;;;7.30;;
7432;SDS011;32233;49.500;7.764;2024-01-06T12:20:52;9.30;;;6.80;;
7432;SDS011;32233;49.500;7.764;2024-01-06T12:23:28;9.57;;;7.63;;
7432;SDS011;32233;49.500;7.764;2024-01-06T12:25:55;8.40;;;6.70;;
7432;SDS011;32233;49.500;7.764;2024-01-06T12:28:22;9.23;;;6.43;;
7432;SDS011;32233;49.500;7.764;2024-01-06T12:30:49;9.77;;;6.23;;
7432;SDS011;32233;49.500;7.764;2024-01-06T12:33:16;9.33;;;6.20;;
7432;SDS011;32233;49.500;7.764;2024-01-06T12:35:43;9.83;;;6.17;;
7432;SDS011;32233;49.500;7.764;2024-01-06T12:38:10;7.37;;;5.93;;
7432;SDS011;32233;49.500;7.764;2024-01-06T12:40:37;7.10;;;5.53;;
7432;SDS011;32233;49.500;7.764;2024-01-06T12:43:04;9.93;;;7.10;;
7432;SDS011;32233;49.500;7.764;2024-01-06T12:45:32;8.20;;;5.57;;
7432;SDS011;32233;49.500;7.764;2024-01-06T12:47:58;7.50;;;5.20;;
7432;SDS011;32233;49.500;7.764;2024-01-06T12:50:25;6.43;;;5.10;;
7432;SDS011;32233;49.500;7.764;2024-01-06T12:52:52;5.57;;;4.40;;
7432;SDS011;32233;49.500;7.764;2024-01-06T12:55:18;8.03;;;4.80;;
7432;SDS011;32233;49.500;7.764;2024-01-06T12:57:45;6.63;;;4.73;;
7432;SDS011;32233;49.500;7.764;2024-01-06T13:00:12;7.90;;;5.40;;
7432;SDS011;32233;49.500;7.764;2024-01-06T13:02:39;6.80;;;5.30;;
7432;SDS011;32233;49.500;7.764;2024-01-06T13:05:06;6.43;;;4.87;;
7432;SDS011;32233;49.500;7.764;2024-01-06T13:07:36;7.53;;;5.30;;
7432;SDS011;32233;49.500;7.764;2024-01-06T13:10:03;7.60;;;5.70;;
7432;SDS011;32233;49.500;7.764;2024-01-06T13:12:30;5.73;;;4.67;;
7432;SDS011;32233;49.500;7.764;2024-01-06T13:14:57;6.37;;;5.40;;
7432;SDS011;32233;49.500;7.764;2024-01-06T13:17:23;6.27;;;4.90;;
7432;SDS011;32233;49.500;7.764;2024-01-06T13:19:50;9.80;;;5.93;;
7432;SDS011;32233;49.500;7.764;2024-01-06T13:22:17;6.70;;;4.63;;
7432;SDS011;32233;49.500;7.764;2024-01-06T13:24:46;5.70;;;4.10;;
7432;SDS011;32233;49.500;7.764;2024-01-06T13:27:18;4.87;;;4.07;;
7432;SDS011;32233;49.500;7.764;2024-01-06T13:29:45;6.43;;;4.10;;
7432;SDS011;32233;49.500;7.764;2024-01-06T13:32:11;4.50;;;4.10;;
7432;SDS011;32233;49.500;7.764;2024-01-06T13:34:39;4.60;;;4.20;;
7432;SDS011;32233;49.500;7.764;2024-01-06T13:37:06;5.33;;;4.23;;
7432;SDS011;32233;49.500;7.764;2024-01-06T13:39:34;4.40;;;4.10;;
7432;SDS011;32233;49.500;7.764;2024-01-06T13:42:00;5.20;;;4.70;;
7432;SDS011;32233;49.500;7.764;2024-01-06T13:44:29;5.00;;;4.43;;
7432;SDS011;32233;49.500;7.764;2024-01-06T13:46:56;4.83;;;4.40;;
7432;SDS011;32233;49.500;7.764;2024-01-06T13:49:23;4.47;;;4.07;;
7432;SDS011;32233;49.500;7.764;2024-01-06T13:51:51;9.00;;;7.30;;
7432;SDS011;32233;49.500;7.764;2024-01-06T13:54:17;5.80;;;4.70;;
7432;SDS011;32233;49.500;7.764;2024-01-06T13:56:46;4.20;;;3.80;;
7432;SDS011;32233;49.500;7.764;2024-01-06T13:59:12;5.77;;;4.70;;
7432;SDS011;32233;49.500;7.764;2024-01-06T14:01:39;4.90;;;4.10;;
7432;SDS011;32233;49.500;7.764;2024-01-06T14:04:06;21.00;;;15.77;;
7432;SDS011;32233;49.500;7.764;2024-01-06T14:06:33;11.77;;;10.10;;
7432;SDS011;32233;49.500;7.764;2024-01-06T14:09:00;6.70;;;6.00;;
7432;SDS011;32233;49.500;7.764;2024-01-06T14:11:27;6.17;;;5.57;;
7432;SDS011;32233;49.500;7.764;2024-01-06T14:13:53;8.00;;;6.80;;
7432;SDS011;32233;49.500;7.764;2024-01-06T14:16:20;7.50;;;6.03;;
7432;SDS011;32233;49.500;7.764;2024-01-06T14:18:47;4.27;;;3.80;;
7432;SDS011;32233;49.500;7.764;2024-01-06T14:21:14;4.03;;;3.70;;
7432;SDS011;32233;49.500;7.764;2024-01-06T14:23:42;3.30;;;3.00;;
7432;SDS011;32233;49.500;7.764;2024-01-06T14:26:09;3.53;;;3.23;;
7432;SDS011;32233;49.500;7.764;2024-01-06T14:28:38;4.23;;;3.03;;
7432;SDS011;32233;49.500;7.764;2024-01-06T14:31:05;3.77;;;3.47;;
7432;SDS011;32233;49.500;7.764;2024-01-06T14:33:32;6.93;;;5.10;;
7432;SDS011;32233;49.500;7.764;2024-01-06T14:36:01;5.67;;;4.00;;
7432;SDS011;32233;49.500;7.764;2024-01-06T14:38:28;3.63;;;3.33;;
7432;SDS011;32233;49.500;7.764;2024-01-06T14:40:55;4.10;;;3.70;;
7432;SDS011;32233;49.500;7.764;2024-01-06T14:43:21;5.60;;;3.97;;
7432;SDS011;32233;49.500;7.764;2024-01-06T14:45:48;4.67;;;3.70;;
7432;SDS011;32233;49.500;7.764;2024-01-06T14:48:14;5.70;;;5.03;;
7432;SDS011;32233;49.500;7.764;2024-01-06T14:50:42;4.80;;;4.30;;
7432;SDS011;32233;49.500;7.764;2024-01-06T14:53:08;4.50;;;4.10;;